Time;durP1;ratioP1;P1;durP2;ratioP2;P2;SDS_P1;SDS_P2;PMS_P1;PMS_P2;Temp;Humidity;BMP_temperature;BMP_pressure;BME280_temperature;BME280_humidity;BME280_pressure;Samples;Min_cycle;Max_cycle;Signal;HPM_P1;HPM_P2
2023/01/27 00:00:53;;;;;;;;;;;;;;;2.12;94.53;99082.97;4966203;28;20454;-82
2023/01/27 00:03:18;;;;;;;;;;;;;;;2.23;94.39;99088.28;4969021;28;19926;-82
2023/01/27 00:05:45;;;;;;;;;;;;;;;2.41;92.65;99098.84;4969162;28;19972;-82
2023/01/27 00:08:10;;;;;;;;;;;;;;;2.38;91.99;99092.72;4969646;28;19918;-82
2023/01/27 00:10:36;;;;;;;;;;;;;;;2.20;91.91;99091.72;4969990;28;20012;-82
2023/01/27 00:15:45;;;;;;;;;;;;;;;2.33;92.11;99093.56;4969217;28;19977;-82
2023/01/27 00:18:10;;;;;;;;;;;;;;;2.13;91.89;99082.09;4969007;28;19926;-82
2023/01/27 00:26:06;;;;;;;;;;;;;;;2.07;94.16;99075.13;4969492;28;20087;-82
2023/01/27 00:28:32;;;;;;;;;;;;;;;2.24;93.04;99063.97;4969378;28;20013;-82
2023/01/27 00:30:58;;;;;;;;;;;;;;;2.13;93.65;99058.66;4948583;29;20076;-82
2023/01/27 00:33:27;;;;;;;;;;;;;;;2.06;92.83;99046.47;4965183;28;20372;-82
2023/01/27 00:35:59;;;;;;;;;;;;;;;2.06;93.09;99051.69;4969152;28;19926;-82
2023/01/27 00:38:26;;;;;;;;;;;;;;;2.05;93.13;99052.53;4968257;28;19933;-82
2023/01/27 00:43:35;;;;;;;;;;;;;;;2.20;92.91;99060.47;4967681;28;19977;-82
2023/01/27 00:46:00;;;;;;;;;;;;;;;2.33;92.08;99062.34;4966129;28;19969;-82
2023/01/27 00:48:26;;;;;;;;;;;;;;;2.54;90.85;99071.16;4949445;29;19926;-82
2023/01/27 00:50:51;;;;;;;;;;;;;;;2.64;90.79;99069.47;4965748;28;19930;-82
2023/01/27 00:53:16;;;;;;;;;;;;;;;2.53;90.12;99060.72;4968731;28;19922;-81
2023/01/27 00:55:42;;;;;;;;;;;;;;;2.63;89.91;99053.00;4969403;28;19941;-82
2023/01/27 00:58:07;;;;;;;;;;;;;;;2.77;89.47;99058.28;4968797;28;19922;-82
2023/01/27 01:00:32;;;;;;;;;;;;;;;2.55;90.56;99027.75;4968133;28;19932;-82
2023/01/27 01:02:58;;;;;;;;;;;;;;;2.53;90.01;99008.66;4968485;28;19976;-82
2023/01/27 01:05:23;;;;;;;;;;;;;;;2.61;89.14;98993.94;4968303;28;20392;-82
2023/01/27 01:07:48;;;;;;;;;;;;;;;2.28;90.40;98972.91;4968556;28;20304;-82
2023/01/27 01:10:14;;;;;;;;;;;;;;;2.15;91.77;98969.34;4969335;28;19918;-82
2023/01/27 01:12:39;;;;;;;;;;;;;;;2.27;92.54;98975.50;4968965;28;19922;-82
2023/01/27 01:15:05;;;;;;;;;;;;;;;2.55;91.36;99004.31;4968185;28;19926;-81
2023/01/27 01:17:31;;;;;;;;;;;;;;;2.67;90.05;99023.50;4968408;28;19926;-81
2023/01/27 01:19:56;;;;;;;;;;;;;;;2.63;89.60;99029.56;4968364;28;19922;-81
2023/01/27 01:22:21;;;;;;;;;;;;;;;2.62;89.18;99029.53;4968298;28;19922;-82
2023/01/27 01:24:47;;;;;;;;;;;;;;;2.74;89.25;99040.03;4968036;28;19918;-82
2023/01/27 01:27:12;;;;;;;;;;;;;;;2.75;88.69;99065.25;4968090;28;20383;-82
2023/01/27 01:29:38;;;;;;;;;;;;;;;2.79;88.28;99074.78;4962468;28;19921;-82
2023/01/27 01:32:03;;;;;;;;;;;;;;;2.74;88.67;99067.84;4968289;28;19926;-81
2023/01/27 01:34:28;;;;;;;;;;;;;;;2.60;88.94;99059.94;4967609;28;19926;-81
2023/01/27 01:36:54;;;;;;;;;;;;;;;2.80;88.57;99067.88;4968016;28;19919;-82
2023/01/27 01:39:19;;;;;;;;;;;;;;;2.93;87.70;99040.16;4968292;28;19926;-80
2023/01/27 01:41:45;;;;;;;;;;;;;;;2.89;87.77;99026.25;4967933;28;19922;-82
2023/01/27 01:44:20;;;;;;;;;;;;;;;2.96;87.54;99021.94;4968550;28;19926;-82
2023/01/27 01:46:45;;;;;;;;;;;;;;;3.10;88.09;99014.16;4968121;28;19949;-82
2023/01/27 01:49:11;;;;;;;;;;;;;;;3.24;87.20;98991.63;4968112;28;19922;-82
2023/01/27 01:51:40;;;;;;;;;;;;;;;3.25;86.71;98995.97;4967439;28;19922;-82
2023/01/27 01:54:11;;;;;;;;;;;;;;;3.27;86.21;98998.59;4971915;28;19922;-82
2023/01/27 01:56:48;;;;;;;;;;;;;;;3.18;86.17;98995.09;4971446;28;20408;-82
2023/01/27 01:59:16;;;;;;;;;;;;;;;3.19;86.21;98980.31;4971701;28;19926;-83
2023/01/27 02:01:41;;;;;;;;;;;;;;;2.91;86.67;98975.00;4972583;28;20445;-83
2023/01/27 02:04:11;;;;;;;;;;;;;;;2.75;87.43;98986.19;4971982;28;20017;-82
2023/01/27 02:06:52;;;;;;;;;;;;;;;2.73;87.63;99001.81;4971736;28;19964;-83
2023/01/27 02:09:19;;;;;;;;;;;;;;;2.86;87.54;98992.38;4954725;28;20361;-82
2023/01/27 02:11:45;;;;;;;;;;;;;;;3.09;86.93;98979.44;4970813;28;19926;-82
2023/01/27 02:14:12;;;;;;;;;;;;;;;2.89;86.93;98979.34;4971949;28;19977;-83
2023/01/27 02:16:38;;;;;;;;;;;;;;;2.69;86.93;98976.66;4971282;28;19937;-82
2023/01/27 02:19:04;;;;;;;;;;;;;;;2.63;87.64;98974.00;4972064;28;20522;-83
2023/01/27 02:21:30;;;;;;;;;;;;;;;2.71;87.56;98958.44;4971901;28;19922;-82
2023/01/27 02:23:58;;;;;;;;;;;;;;;2.89;87.35;98955.00;4970675;28;20396;-82
2023/01/27 02:26:32;;;;;;;;;;;;;;;2.93;86.72;98952.44;4971776;28;19947;-82
2023/01/27 02:28:59;;;;;;;;;;;;;;;3.08;86.71;98922.09;4971490;28;19968;-82
2023/01/27 02:31:24;;;;;;;;;;;;;;;3.07;86.27;98922.94;4971557;28;19918;-82
2023/01/27 02:33:51;;;;;;;;;;;;;;;2.83;85.60;98942.84;4970941;28;19957;-82
2023/01/27 02:36:17;;;;;;;;;;;;;;;2.77;86.95;98953.25;4971230;28;20319;-82
2023/01/27 02:38:47;;;;;;;;;;;;;;;2.79;87.37;98943.69;4953886;28;19924;-82
2023/01/27 02:41:20;;;;;;;;;;;;;;;2.89;87.06;98935.06;4971218;28;19968;-82
2023/01/27 02:43:46;;;;;;;;;;;;;;;2.82;87.23;98920.25;4970527;28;19954;-82
2023/01/27 02:46:11;;;;;;;;;;;;;;;3.08;86.77;98928.16;4971281;28;19945;-82
2023/01/27 02:48:37;;;;;;;;;;;;;;;3.07;86.01;98944.66;4971334;28;20298;-82
2023/01/27 02:51:02;;;;;;;;;;;;;;;2.93;86.66;98947.22;4971193;28;19969;-82
2023/01/27 02:53:28;;;;;;;;;;;;;;;3.04;86.44;98942.03;4970482;28;19922;-83
2023/01/27 02:55:53;;;;;;;;;;;;;;;3.13;85.69;98942.06;4970677;28;19984;-82
2023/01/27 02:58:18;;;;;;;;;;;;;;;2.77;86.99;98935.00;4970693;28;19929;-82
2023/01/27 03:00:44;;;;;;;;;;;;;;;2.76;87.05;98933.25;4970323;28;19926;-82
2023/01/27 03:03:09;;;;;;;;;;;;;;;2.75;87.72;98924.59;4971165;28;19922;-82
2023/01/27 03:05:34;;;;;;;;;;;;;;;2.71;87.92;98919.34;4969407;28;20012;-82
2023/01/27 03:08:00;;;;;;;;;;;;;;;2.93;87.07;98921.16;4971200;28;20388;-83
2023/01/27 03:10:25;;;;;;;;;;;;;;;2.70;87.10;98910.66;4970849;28;19972;-82
2023/01/27 03:12:51;;;;;;;;;;;;;;;2.84;87.30;98906.38;4970472;28;20423;-82
2023/01/27 03:18:15;;;;;;;;;;;;;;;2.96;87.15;98908.16;4970624;28;19928;-82
2023/01/27 03:20:41;;;;;;;;;;;;;;;3.22;86.20;98918.63;4970942;28;20016;-82
2023/01/27 03:23:07;;;;;;;;;;;;;;;3.31;85.71;98928.22;4970540;28;19914;-82
2023/01/27 03:25:32;;;;;;;;;;;;;;;3.13;86.23;98933.38;4970141;28;19941;-82
2023/01/27 03:27:58;;;;;;;;;;;;;;;3.19;85.36;98936.88;4970250;28;19926;-82
2023/01/27 03:30:24;;;;;;;;;;;;;;;3.15;85.69;98931.66;4970424;28;19933;-82
2023/01/27 03:32:49;;;;;;;;;;;;;;;3.15;85.50;98939.47;4970835;28;19926;-82
2023/01/27 03:35:15;;;;;;;;;;;;;;;3.12;85.08;98936.84;4970162;28;19926;-83
2023/01/27 03:48:38;;;;;;;;;;;;;;;3.33;84.92;98943.88;4952180;28;19984;-82
2023/01/27 03:51:05;;;;;;;;;;;;;;;3.42;84.47;98951.72;4969331;28;19922;-82
2023/01/27 03:53:31;;;;;;;;;;;;;;;3.44;84.58;98952.56;4969760;28;20647;-82
2023/01/27 03:55:56;;;;;;;;;;;;;;;3.51;84.13;98950.88;4969010;28;19922;-82
2023/01/27 03:58:23;;;;;;;;;;;;;;;3.49;83.92;98934.31;4969510;28;19926;-83
2023/01/27 04:00:55;;;;;;;;;;;;;;;3.40;83.79;98927.38;4969182;28;20324;-84
2023/01/27 04:08:54;;;;;;;;;;;;;;;3.39;84.35;98886.53;4969404;28;19973;-82
2023/01/27 04:14:04;;;;;;;;;;;;;;;3.30;84.42;98897.78;4969415;28;19937;-82
2023/01/27 04:16:30;;;;;;;;;;;;;;;3.09;84.17;98892.53;4969297;28;19922;-82
2023/01/27 04:18:55;;;;;;;;;;;;;;;3.03;85.11;98889.06;4952006;28;20068;-82
2023/01/27 04:21:21;;;;;;;;;;;;;;;3.02;85.26;98891.66;4969727;28;19922;-82
2023/01/27 04:23:46;;;;;;;;;;;;;;;3.05;85.24;98902.09;4968431;28;19930;-82
2023/01/27 04:26:11;;;;;;;;;;;;;;;3.16;85.33;98896.91;4968105;28;19933;-81
2023/01/27 04:28:37;;;;;;;;;;;;;;;3.05;85.24;98892.53;4966228;28;19937;-82
2023/01/27 04:31:02;;;;;;;;;;;;;;;3.03;85.60;98889.06;4966880;28;19986;-84
2023/01/27 04:33:28;;;;;;;;;;;;;;;2.90;86.01;98884.69;4968024;28;20403;-83
2023/01/27 04:35:54;;;;;;;;;;;;;;;3.02;86.18;98887.31;4968761;28;19926;-82
2023/01/27 04:38:19;;;;;;;;;;;;;;;3.27;85.71;98887.38;4966646;28;19933;-83
2023/01/27 04:40:45;;;;;;;;;;;;;;;3.28;85.06;98883.03;4965531;28;19918;-83
2023/01/27 04:43:10;;;;;;;;;;;;;;;3.39;85.11;98890.00;4963957;28;19922;-84
2023/01/27 04:45:35;;;;;;;;;;;;;;;3.45;84.36;98890.88;4958080;28;19926;-83
2023/01/27 04:48:01;;;;;;;;;;;;;;;3.50;84.08;98878.72;4963447;28;19922;-84
2023/01/27 04:50:26;;;;;;;;;;;;;;;3.58;83.98;98871.75;4960158;28;19926;-84
2023/01/27 04:52:52;;;;;;;;;;;;;;;3.61;83.89;98874.34;4952593;28;19922;-83
2023/01/27 04:55:17;;;;;;;;;;;;;;;3.53;83.98;98881.31;4961421;28;20013;-84
2023/01/27 04:57:42;;;;;;;;;;;;;;;3.53;83.91;98876.97;4949073;29;20053;-82
2023/01/27 05:00:10;;;;;;;;;;;;;;;3.43;84.14;98872.63;4960558;28;19922;-84
2023/01/27 05:02:35;;;;;;;;;;;;;;;3.57;83.42;98873.50;4967064;28;19929;-83
2023/01/27 05:05:03;;;;;;;;;;;;;;;3.48;83.81;98875.25;4945127;28;19926;-82
2023/01/27 05:07:29;;;;;;;;;;;;;;;3.52;83.46;98890.88;4949303;28;19919;-83
2023/01/27 05:09:54;;;;;;;;;;;;;;;3.58;83.56;98897.81;4959312;28;19914;-82
2023/01/27 05:12:19;;;;;;;;;;;;;;;3.53;84.07;98903.03;4950061;28;19922;-82
2023/01/27 05:14:45;;;;;;;;;;;;;;;3.65;83.48;98915.22;4958550;28;19929;-83
2023/01/27 05:17:10;;;;;;;;;;;;;;;3.71;82.97;98917.84;4952318;28;20318;-80
2023/01/27 05:19:35;;;;;;;;;;;;;;;3.70;83.46;98921.31;4961646;28;19933;-79
2023/01/27 05:22:01;;;;;;;;;;;;;;;3.69;83.09;98927.41;4985992;28;19922;-80
2023/01/27 05:24:26;;;;;;;;;;;;;;;3.70;82.64;98915.22;4965282;28;19926;-80
2023/01/27 05:26:52;;;;;;;;;;;;;;;3.56;82.80;98915.22;4966305;28;20021;-80
2023/01/27 05:29:18;;;;;;;;;;;;;;;3.59;83.31;98920.44;4965576;28;19936;-80
2023/01/27 05:31:43;;;;;;;;;;;;;;;3.53;82.80;98912.63;4968149;28;19925;-80
2023/01/27 05:34:09;;;;;;;;;;;;;;;3.45;83.53;98911.75;4965743;28;19929;-80
2023/01/27 05:36:34;;;;;;;;;;;;;;;3.46;83.71;98914.34;4968150;28;19929;-81
2023/01/27 05:38:59;;;;;;;;;;;;;;;3.44;83.47;98918.69;4967956;28;19930;-80
2023/01/27 05:41:27;;;;;;;;;;;;;;;3.33;83.59;98925.63;4958481;28;19926;-80
2023/01/27 05:43:53;;;;;;;;;;;;;;;3.52;83.92;98923.91;4954196;28;20294;-79
2023/01/27 05:46:23;;;;;;;;;;;;;;;3.41;83.93;98918.66;4968111;28;19985;-80
2023/01/27 05:48:50;;;;;;;;;;;;;;;3.59;83.59;98925.66;4963759;28;20403;-80
2023/01/27 05:51:16;;;;;;;;;;;;;;;3.68;83.13;98925.66;4957090;28;19922;-80
2023/01/27 05:53:42;;;;;;;;;;;;;;;3.68;83.39;98925.66;4951359;28;19926;-80
2023/01/27 05:56:09;;;;;;;;;;;;;;;3.67;83.39;98921.31;4961348;28;20374;-79
2023/01/27 05:58:35;;;;;;;;;;;;;;;3.78;82.98;98925.66;4966105;28;19929;-80
2023/01/27 06:01:29;;;;;;;;;;;;;;;3.80;82.89;98916.97;4967207;28;19981;-81
2023/01/27 06:03:54;;;;;;;;;;;;;;;3.90;83.08;98910.00;4926260;29;19930;-80
2023/01/27 06:06:21;;;;;;;;;;;;;;;3.72;82.54;98909.16;4926848;29;19926;-81
2023/01/27 06:08:46;;;;;;;;;;;;;;;3.52;83.02;98909.16;4926820;29;20452;-81
2023/01/27 06:11:12;;;;;;;;;;;;;;;3.57;83.21;98909.16;4926736;29;20094;-82
2023/01/27 06:13:37;;;;;;;;;;;;;;;3.43;83.71;98913.47;4926198;29;19927;-83
2023/01/27 06:16:07;;;;;;;;;;;;;;;3.47;83.32;98916.06;4926646;29;19933;-85
2023/01/27 06:18:32;;;;;;;;;;;;;;;3.49;84.80;98916.97;4925513;29;19923;-85
2023/01/27 06:20:58;;;;;;;;;;;;;;;3.62;84.41;98924.81;4926072;29;20336;-84
2023/01/27 06:23:23;;;;;;;;;;;;;;;3.66;83.49;98919.59;4926970;29;20382;-84
2023/01/27 06:25:49;;;;;;;;;;;;;;;3.76;83.20;98923.91;4926752;29;19926;-85
2023/01/27 06:28:15;;;;;;;;;;;;;;;3.74;82.76;98932.63;4926989;29;19986;-85
2023/01/27 06:30:41;;;;;;;;;;;;;;;3.69;83.23;98932.63;4926662;29;20026;-86
2023/01/27 06:33:06;;;;;;;;;;;;;;;3.74;83.15;98930.88;4925683;29;19927;-85
2023/01/27 06:35:32;;;;;;;;;;;;;;;3.75;83.05;98932.63;4926754;29;20029;-84
2023/01/27 06:37:58;;;;;;;;;;;;;;;3.85;83.14;98923.06;4927097;29;19926;-86
2023/01/27 06:40:24;;;;;;;;;;;;;;;3.97;82.82;98916.09;4951732;28;19934;-84
2023/01/27 06:42:49;;;;;;;;;;;;;;;4.00;82.45;98911.75;4971864;28;19965;-84
2023/01/27 06:45:15;;;;;;;;;;;;;;;4.06;82.69;98916.06;4964146;28;20013;-84
2023/01/27 06:47:40;;;;;;;;;;;;;;;4.05;82.35;98917.81;4951789;29;19930;-84
2023/01/27 06:50:07;;;;;;;;;;;;;;;4.28;82.81;98917.78;4957111;28;20338;-85
2023/01/27 06:52:32;;;;;;;;;;;;;;;4.67;83.11;98930.75;4972824;28;20428;-82
2023/01/27 06:54:57;;;;;;;;;;;;;;;5.01;82.04;98917.53;4968943;28;20016;-82
2023/01/27 06:57:23;;;;;;;;;;;;;;;4.96;81.67;98914.09;4969200;28;19930;-84
2023/01/27 06:59:48;;;;;;;;;;;;;;;4.94;81.22;98910.59;4964512;28;20397;-82
2023/01/27 07:02:13;;;;;;;;;;;;;;;5.12;81.41;98912.25;4971384;28;19961;-82
2023/01/27 07:04:39;;;;;;;;;;;;;;;5.27;80.91;98916.53;4962577;28;19925;-82
2023/01/27 07:07:04;;;;;;;;;;;;;;;5.41;79.10;98919.94;4966730;28;19926;-82
2023/01/27 07:09:29;;;;;;;;;;;;;;;5.26;78.93;98920.03;4966215;28;19930;-82
2023/01/27 07:11:54;;;;;;;;;;;;;;;5.36;77.96;98929.53;4965688;28;19925;-82
2023/01/27 07:14:20;;;;;;;;;;;;;;;5.30;78.21;98932.19;4968028;28;20454;-82
2023/01/27 07:16:45;;;;;;;;;;;;;;;5.27;77.77;98927.00;4963914;28;19926;-82
2023/01/27 07:19:11;;;;;;;;;;;;;;;5.30;78.29;98922.63;4961866;28;20451;-82
2023/01/27 07:21:37;;;;;;;;;;;;;;;5.41;77.77;98922.53;4960100;28;19929;-82
2023/01/27 07:24:02;;;;;;;;;;;;;;;5.41;77.76;98927.78;4951425;28;19922;-91
2023/01/27 07:26:28;;;;;;;;;;;;;;;5.46;77.19;98928.59;4960560;28;19923;-83
2023/01/27 07:28:54;;;;;;;;;;;;;;;5.51;77.02;98923.34;4953680;28;20511;-82
2023/01/27 07:31:19;;;;;;;;;;;;;;;5.37;76.91;98931.28;4959551;28;19929;-83
2023/01/27 07:33:45;;;;;;;;;;;;;;;5.35;76.39;98930.44;4953945;28;19922;-83
2023/01/27 07:36:10;;;;;;;;;;;;;;;5.00;77.13;98928.88;4959651;28;19923;-85
2023/01/27 07:38:36;;;;;;;;;;;;;;;4.94;77.20;98919.31;4952687;28;19922;-83
2023/01/27 07:41:05;;;;;;;;;;;;;;;4.71;78.16;98929.88;4961487;28;19918;-83
2023/01/27 07:43:30;;;;;;;;;;;;;;;4.39;79.27;98925.59;4968163;28;19924;-83
2023/01/27 07:45:56;;;;;;;;;;;;;;;4.57;79.17;98918.56;4958596;28;20012;-83
2023/01/27 07:48:22;;;;;;;;;;;;;;;4.49;79.67;98916.00;4951069;28;19924;-85
2023/01/27 07:50:47;;;;;;;;;;;;;;;4.36;80.52;98911.69;4960771;28;19922;-84
2023/01/27 07:53:12;;;;;;;;;;;;;;;4.59;80.44;98901.19;4951323;28;20383;-84
2023/01/27 07:55:38;;;;;;;;;;;;;;;4.68;80.04;98908.09;4961285;28;20309;-84
2023/01/27 07:58:04;;;;;;;;;;;;;;;4.73;80.07;98907.22;4949257;29;19918;-87
2023/01/27 08:00:29;;;;;;;;;;;;;;;4.68;80.01;98900.25;4958250;28;19981;-85
2023/01/27 08:02:57;;;;;;;;;;;;;;;4.57;80.51;98901.19;4970176;28;20353;-85
2023/01/27 08:05:22;;;;;;;;;;;;;;;4.62;80.16;98902.03;4962891;28;20396;-85
2023/01/27 08:07:49;;;;;;;;;;;;;;;4.65;79.76;98902.00;4950907;29;19925;-85
2023/01/27 08:10:14;;;;;;;;;;;;;;;4.48;80.62;98904.69;4961312;28;20017;-85
2023/01/27 08:12:40;;;;;;;;;;;;;;;4.47;80.79;98907.31;4950887;29;20456;-85
2023/01/27 08:15:05;;;;;;;;;;;;;;;4.39;81.79;98909.06;4960304;28;20348;-85
2023/01/27 08:17:31;;;;;;;;;;;;;;;4.50;81.25;98903.81;4951429;28;19925;-85
2023/01/27 08:19:56;;;;;;;;;;;;;;;4.64;80.97;98899.41;4955357;28;20004;-85
2023/01/27 08:22:21;;;;;;;;;;;;;;;4.79;80.49;98891.50;4967237;28;19997;-84
2023/01/27 08:24:50;;;;;;;;;;;;;;;4.74;80.56;98893.28;4969113;28;19922;-83
2023/01/27 08:27:16;;;;;;;;;;;;;;;4.77;81.03;98887.16;4969709;28;20423;-83
2023/01/27 08:29:41;;;;;;;;;;;;;;;4.66;80.84;98877.63;4969111;28;19925;-85
2023/01/27 08:32:07;;;;;;;;;;;;;;;4.88;80.72;98884.50;4969037;28;20308;-84
2023/01/27 08:34:33;;;;;;;;;;;;;;;4.78;80.55;98876.69;4969396;28;20024;-83
2023/01/27 08:36:58;;;;;;;;;;;;;;;4.82;80.06;98877.56;4969500;28;19945;-84
2023/01/27 08:39:23;;;;;;;;;;;;;;;4.95;79.37;98878.38;4969476;28;19918;-84
2023/01/27 08:41:49;;;;;;;;;;;;;;;5.01;78.81;98878.34;4967560;28;19914;-83
2023/01/27 08:44:14;;;;;;;;;;;;;;;4.97;79.08;98874.00;4967869;28;20339;-84
2023/01/27 08:46:40;;;;;;;;;;;;;;;4.91;80.04;98867.06;4949757;29;19944;-83
2023/01/27 08:49:05;;;;;;;;;;;;;;;5.00;79.99;98872.25;4949878;29;19926;-83
2023/01/27 08:51:30;;;;;;;;;;;;;;;5.04;80.11;98869.63;4949484;29;19929;-83
2023/01/27 08:53:56;;;;;;;;;;;;;;;5.11;80.08;98882.63;4953803;28;19923;-84
2023/01/27 08:56:22;;;;;;;;;;;;;;;5.23;79.05;98886.91;4969226;28;19938;-83
2023/01/27 08:58:47;;;;;;;;;;;;;;;5.19;79.32;98887.81;4968748;28;20649;-83
2023/01/27 09:01:13;;;;;;;;;;;;;;;5.20;79.06;98889.53;4968787;28;19921;-84
2023/01/27 09:03:38;;;;;;;;;;;;;;;5.09;79.63;98892.22;4967926;28;19922;-83
2023/01/27 09:06:04;;;;;;;;;;;;;;;4.92;80.25;98889.69;4967513;28;20034;-84
2023/01/27 09:08:30;;;;;;;;;;;;;;;5.08;80.16;98884.38;4951422;28;19931;-86
2023/01/27 09:10:55;;;;;;;;;;;;;;;5.03;80.58;98881.78;4955866;28;20031;-84
2023/01/27 09:13:21;;;;;;;;;;;;;;;4.94;80.35;98876.63;4949307;29;20605;-83
2023/01/27 09:15:46;;;;;;;;;;;;;;;4.97;81.12;98874.88;4964626;28;19918;-84
2023/01/27 09:18:12;;;;;;;;;;;;;;;5.01;80.62;98879.19;4949005;29;19925;-83
2023/01/27 09:20:37;;;;;;;;;;;;;;;5.08;80.52;98871.31;4948984;29;19923;-84
2023/01/27 09:23:04;;;;;;;;;;;;;;;4.97;80.58;98860.91;4949419;29;19929;-84
2023/01/27 09:25:29;;;;;;;;;;;;;;;5.01;80.76;98862.66;4954378;28;20008;-83
2023/01/27 09:27:55;;;;;;;;;;;;;;;5.02;80.83;98856.56;4968511;28;20459;-83
2023/01/27 09:30:21;;;;;;;;;;;;;;;4.77;80.70;98855.78;4968663;28;19925;-81
2023/01/27 09:32:46;;;;;;;;;;;;;;;4.83;81.14;98850.53;4968341;28;19918;-82
2023/01/27 09:35:12;;;;;;;;;;;;;;;4.78;82.25;98836.63;4968005;28;20412;-83
2023/01/27 09:37:49;;;;;;;;;;;;;;;4.72;81.93;98837.53;4967844;28;20523;-83
2023/01/27 09:40:21;;;;;;;;;;;;;;;4.63;82.92;98824.50;4967952;28;19923;-83
2023/01/27 09:42:58;;;;;;;;;;;;;;;4.66;83.62;98812.31;4968590;28;20339;-83
2023/01/27 09:45:42;;;;;;;;;;;;;;;4.94;82.24;98814.78;4968200;28;19961;-83
2023/01/27 09:48:14;;;;;;;;;;;;;;;5.14;81.59;98817.25;4968337;28;19924;-84
2023/01/27 09:50:51;;;;;;;;;;;;;;;5.33;80.78;98833.69;4967701;28;19922;-83
2023/01/27 09:53:16;;;;;;;;;;;;;;;5.70;79.96;98830.75;4968832;28;19922;-84
2023/01/27 09:55:48;;;;;;;;;;;;;;;5.58;79.85;98830.84;4967933;28;19918;-83
2023/01/27 09:58:16;;;;;;;;;;;;;;;5.57;79.64;98837.81;4948700;28;20001;-84
2023/01/27 10:00:52;;;;;;;;;;;;;;;5.47;79.86;98832.69;4963248;28;20578;-83
2023/01/27 10:03:29;;;;;;;;;;;;;;;5.45;80.76;98827.47;4948737;29;19923;-84
2023/01/27 10:06:07;;;;;;;;;;;;;;;5.37;80.80;98822.28;4950073;28;20029;-85
2023/01/27 10:08:51;;;;;;;;;;;;;;;4.99;82.21;98802.53;4964513;28;19958;-90
2023/01/27 10:11:20;;;;;;;;;;;;;;;4.83;82.41;98803.50;4983339;28;19944;-88
2023/01/27 10:13:59;;;;;;;;;;;;;;;4.99;83.46;98807.75;4950932;28;19949;-89
2023/01/27 10:16:25;;;;;;;;;;;;;;;4.97;82.92;98806.91;4948964;28;19919;-84
2023/01/27 10:19:09;;;;;;;;;;;;;;;5.08;83.27;98806.84;4953084;28;19945;-85
2023/01/27 10:21:37;;;;;;;;;;;;;;;4.84;83.04;98789.56;4962102;28;20029;-84
2023/01/27 10:24:05;;;;;;;;;;;;;;;4.76;83.45;98797.44;4956920;28;19930;-86
2023/01/27 10:26:50;;;;;;;;;;;;;;;4.80;84.56;98785.22;4971042;28;19926;-84
2023/01/27 10:29:19;;;;;;;;;;;;;;;4.88;83.40;98777.34;4970942;28;19977;-86
2023/01/27 10:31:53;;;;;;;;;;;;;;;4.92;83.57;98779.06;4955149;28;19930;-86
2023/01/27 10:34:27;;;;;;;;;;;;;;;5.06;82.42;98774.59;4963147;28;19922;-86
2023/01/27 10:36:58;;;;;;;;;;;;;;;5.05;82.38;98780.72;4967003;28;19925;-86
2023/01/27 10:39:31;;;;;;;;;;;;;;;5.11;82.19;98783.28;4954648;28;19978;-86
2023/01/27 10:41:56;;;;;;;;;;;;;;;5.16;82.33;98780.66;4954054;28;19929;-86
2023/01/27 10:44:25;;;;;;;;;;;;;;;5.09;81.93;98769.34;4964443;28;19922;-87
2023/01/27 10:46:57;;;;;;;;;;;;;;;4.89;82.40;98766.88;4965788;28;20452;-86
2023/01/27 10:49:26;;;;;;;;;;;;;;;5.07;82.15;98759.81;4968357;28;19926;-86
2023/01/27 10:51:56;;;;;;;;;;;;;;;4.88;83.18;98752.09;4969448;28;19945;-87
2023/01/27 10:54:21;;;;;;;;;;;;;;;5.12;82.34;98751.03;4969652;28;20321;-87
2023/01/27 10:56:55;;;;;;;;;;;;;;;5.02;82.12;98749.38;4984646;28;19977;-85
2023/01/27 10:59:32;;;;;;;;;;;;;;;5.41;81.26;98743.78;4969239;28;19922;-86
2023/01/27 11:02:04;;;;;;;;;;;;;;;5.15;81.83;98740.53;4970257;28;20632;-86
2023/01/27 11:04:33;;;;;;;;;;;;;;;5.27;81.53;98736.97;4970106;28;19968;-86
2023/01/27 11:06:59;;;;;;;;;;;;;;;5.42;82.21;98740.31;4971215;28;20289;-84
2023/01/27 11:09:33;;;;;;;;;;;;;;;5.62;81.44;98735.75;4970819;28;19924;-86
2023/01/27 11:12:04;;;;;;;;;;;;;;;5.59;81.13;98734.91;4971022;28;19961;-87
2023/01/27 11:14:48;;;;;;;;;;;;;;;5.70;80.43;98730.44;4971332;28;20069;-86
2023/01/27 11:17:16;;;;;;;;;;;;;;;5.68;81.08;98733.06;4970938;28;19929;-86
2023/01/27 11:19:53;;;;;;;;;;;;;;;5.85;80.21;98727.63;4970946;28;19976;-86
2023/01/27 11:22:26;;;;;;;;;;;;;;;5.99;80.25;98724.91;4970963;28;20403;-86
2023/01/27 11:24:56;;;;;;;;;;;;;;;5.91;80.25;98724.94;4970101;28;19929;-83
2023/01/27 11:27:25;;;;;;;;;;;;;;;5.80;79.83;98726.84;4970984;28;19918;-83
2023/01/27 11:29:57;;;;;;;;;;;;;;;6.32;81.08;98716.63;4970994;28;19922;-85
2023/01/27 11:32:30;;;;;;;;;;;;;;;6.65;79.22;98733.66;4953194;28;20374;-84
2023/01/27 11:35:04;;;;;;;;;;;;;;;6.98;78.62;98731.41;4970231;28;19929;-84
2023/01/27 11:37:29;;;;;;;;;;;;;;;6.76;78.69;98741.34;4970856;28;19953;-84
2023/01/27 11:39:55;;;;;;;;;;;;;;;6.84;79.11;98733.38;4970737;28;20368;-85
2023/01/27 11:42:20;;;;;;;;;;;;;;;6.63;80.08;98731.06;4970075;28;20472;-84
2023/01/27 11:44:54;;;;;;;;;;;;;;;6.81;79.06;98729.91;4970344;28;20308;-85
2023/01/27 11:47:24;;;;;;;;;;;;;;;6.75;79.90;98729.13;4968584;28;20321;-85
2023/01/27 11:49:51;;;;;;;;;;;;;;;6.47;79.82;98718.19;4970670;28;19929;-84
2023/01/27 11:52:17;;;;;;;;;;;;;;;6.33;80.61;98715.75;4970313;28;20037;-84
2023/01/27 11:54:49;;;;;;;;;;;;;;;6.48;80.67;98715.53;4970882;28;19950;-84
2023/01/27 11:57:17;;;;;;;;;;;;;;;6.59;80.01;98723.25;4969553;28;19922;-85
2023/01/27 11:59:44;;;;;;;;;;;;;;;6.57;79.63;98712.78;4970389;28;20021;-84
2023/01/27 12:02:28;;;;;;;;;;;;;;;6.47;79.66;98711.19;4970018;28;19918;-84
2023/01/27 12:04:53;;;;;;;;;;;;;;;6.20;80.67;98710.69;4970531;28;19926;-84
2023/01/27 12:07:23;;;;;;;;;;;;;;;6.26;80.75;98707.97;4970045;28;19945;-82
2023/01/27 12:09:49;;;;;;;;;;;;;;;6.25;81.63;98710.63;4970111;28;19926;-87
2023/01/27 12:12:14;;;;;;;;;;;;;;;6.40;80.15;98701.69;4970094;28;19928;-85
2023/01/27 12:14:56;;;;;;;;;;;;;;;6.59;80.05;98702.28;4969855;28;20311;-86
2023/01/27 12:17:21;;;;;;;;;;;;;;;6.44;79.79;98698.13;4969176;28;20377;-86
2023/01/27 12:19:47;;;;;;;;;;;;;;;6.39;79.12;98694.72;4969699;28;20002;-85
2023/01/27 12:22:19;;;;;;;;;;;;;;;6.47;79.56;98689.38;4969245;28;19969;-84
2023/01/27 12:24:49;;;;;;;;;;;;;;;6.33;80.35;98686.94;4969377;28;19945;-84
2023/01/27 12:27:20;;;;;;;;;;;;;;;6.34;80.57;98686.91;4969262;28;19925;-84
2023/01/27 12:29:49;;;;;;;;;;;;;;;6.41;80.93;98678.09;4970120;28;19918;-83
2023/01/27 12:32:33;;;;;;;;;;;;;;;6.44;81.22;98685.03;4969740;28;20396;-87
2023/01/27 12:35:01;;;;;;;;;;;;;;;6.80;80.79;98678.38;4952215;28;20013;-83
2023/01/27 12:37:29;;;;;;;;;;;;;;;6.89;80.68;98684.34;4969056;28;19985;-83
2023/01/27 12:39:59;;;;;;;;;;;;;;;7.07;80.31;98684.03;4969772;28;20442;-85
2023/01/27 12:42:35;;;;;;;;;;;;;;;6.91;79.06;98678.19;4969706;28;19929;-87
2023/01/27 12:45:16;;;;;;;;;;;;;;;6.65;81.12;98680.38;4969910;28;19922;-85
2023/01/27 12:47:53;;;;;;;;;;;;;;;6.52;80.28;98677.94;4970555;28;19974;-85
2023/01/27 12:50:23;;;;;;;;;;;;;;;6.41;81.00;98678.09;4970917;28;19965;-85
2023/01/27 12:53:06;;;;;;;;;;;;;;;6.30;81.15;98682.59;4970849;28;19918;-85
2023/01/27 12:55:37;;;;;;;;;;;;;;;6.52;81.52;98685.81;4984428;28;19976;-84
2023/01/27 12:58:03;;;;;;;;;;;;;;;6.51;80.60;98685.81;4968721;28;19922;-84
2023/01/27 13:00:29;;;;;;;;;;;;;;;6.44;81.45;98679.78;4969054;28;19981;-85
2023/01/27 13:03:04;;;;;;;;;;;;;;;6.30;80.61;98682.59;4969258;28;19968;-85
2023/01/27 13:05:34;;;;;;;;;;;;;;;6.15;80.40;98675.84;4968874;28;19968;-83
2023/01/27 13:08:03;;;;;;;;;;;;;;;6.25;81.10;98666.94;4970559;28;20028;-86
2023/01/27 13:10:33;;;;;;;;;;;;;;;6.47;81.55;98663.16;4953733;28;19914;-89
2023/01/27 13:13:12;;;;;;;;;;;;;;;;;;;;;
2023/01/27 13:15:50;;;;;;;;;;;;;;;6.31;80.12;98660.78;4970856;28;20391;-89
2023/01/27 13:18:20;;;;;;;;;;;;;;;6.41;80.49;98665.00;4969399;28;20472;-87
2023/01/27 13:21:12;;;;;;;;;;;;;;;6.42;80.28;98664.09;4971100;28;20301;-88
2023/01/27 13:23:38;;;;;;;;;;;;;;;6.31;79.76;98668.63;4929197;29;20341;-84
2023/01/27 13:26:03;;;;;;;;;;;;;;;6.23;80.50;98667.88;4928926;29;19923;-86
2023/01/27 13:28:39;;;;;;;;;;;;;;;6.11;80.47;98655.81;4929134;29;19923;-86
2023/01/27 13:31:07;;;;;;;;;;;;;;;6.36;81.08;98677.28;4929908;29;20017;-88
2023/01/27 13:33:41;;;;;;;;;;;;;;;6.42;79.94;98671.09;4946053;29;19923;-86